Mercersburg, Pennsylvania
Current Conditions -  °F | °C
As of 9:53 PM on Wednesday 22 Oct 2014 (Local Time) from KHGR Reporting Station
Few Clouds Few Clouds  
Wind Chill: 50°   Ceiling: Unl
Heat Index: 50°   Visibility: 10mi
Dew Point: 41°   Wind: 13mph
Humidity: 71%   Direction: 320°NW
Pressure: 30.01"   Gusts: NA
Location:  39.83°N, 77.9°W
Report Text: KHGR 230153Z AUTO 32011KT 10SM FEW050 10/05 A3001 RMK AO2 SLP173 T01000050 TSNO
Loading
Personal Weather Stations






























Interactive Weather Map
Tropical Storm Tracking
New forecast layout! Learn more

10-Day Weather Forecast

Advertisements
Track Severe Weather on mobile